sensor_id;sensor_type;location;lat;lon;timestamp;pressure;altitude;pressure_sealevel;temperature;humidity
69198;BME280;56311;50.298;8.514;2022-09-24T00:01:34;97535.38;;;8.29;100.00
69198;BME280;56311;50.298;8.514;2022-09-24T00:04:04;97534.81;;;8.32;100.00
69198;BME280;56311;50.298;8.514;2022-09-24T00:06:35;97532.41;;;8.31;100.00
69198;BME280;56311;50.298;8.514;2022-09-24T00:09:03;97527.03;;;8.31;100.00
69198;BME280;56311;50.298;8.514;2022-09-24T00:11:30;97528.66;;;8.32;100.00
69198;BME280;56311;50.298;8.514;2022-09-24T00:13:58;97527.81;;;8.31;100.00
69198;BME280;56311;50.298;8.514;2022-09-24T00:16:27;97527.50;;;8.43;100.00
69198;BME280;56311;50.298;8.514;2022-09-24T00:18:57;97535.06;;;8.36;100.00
69198;BME280;56311;50.298;8.514;2022-09-24T00:21:27;97534.28;;;8.35;100.00
69198;BME280;56311;50.298;8.514;2022-09-24T00:23:55;97529.16;;;8.34;100.00
69198;BME280;56311;50.298;8.514;2022-09-24T00:26:22;97528.03;;;8.40;100.00
69198;BME280;56311;50.298;8.514;2022-09-24T00:29:09;97521.06;;;8.39;100.00
69198;BME280;56311;50.298;8.514;2022-09-24T00:31:36;97517.00;;;8.36;100.00
69198;BME280;56311;50.298;8.514;2022-09-24T00:34:04;97513.81;;;8.34;100.00
69198;BME280;56311;50.298;8.514;2022-09-24T00:36:31;97511.91;;;8.35;100.00
69198;BME280;56311;50.298;8.514;2022-09-24T00:38:59;97511.34;;;8.38;100.00
69198;BME280;56311;50.298;8.514;2022-09-24T00:41:30;97514.56;;;8.40;100.00
69198;BME280;56311;50.298;8.514;2022-09-24T00:43:58;97504.59;;;8.40;100.00
69198;BME280;56311;50.298;8.514;2022-09-24T00:46:27;97508.09;;;8.41;100.00
69198;BME280;56311;50.298;8.514;2022-09-24T00:48:57;97498.91;;;8.42;100.00
69198;BME280;56311;50.298;8.514;2022-09-24T00:51:29;97494.09;;;8.39;100.00
69198;BME280;56311;50.298;8.514;2022-09-24T00:54:00;97497.34;;;8.36;100.00
69198;BME280;56311;50.298;8.514;2022-09-24T00:56:29;97502.72;;;8.36;100.00
69198;BME280;56311;50.298;8.514;2022-09-24T00:58:59;97493.03;;;8.35;100.00
69198;BME280;56311;50.298;8.514;2022-09-24T01:01:30;97500.03;;;8.36;100.00
69198;BME280;56311;50.298;8.514;2022-09-24T01:03:57;97491.72;;;8.32;100.00
69198;BME280;56311;50.298;8.514;2022-09-24T01:06:27;97483.91;;;8.31;100.00
69198;BME280;56311;50.298;8.514;2022-09-24T01:08:55;97486.88;;;8.29;100.00
69198;BME280;56311;50.298;8.514;2022-09-24T01:11:34;97486.09;;;8.23;100.00
69198;BME280;56311;50.298;8.514;2022-09-24T01:14:20;97486.13;;;8.18;100.00
69198;BME280;56311;50.298;8.514;2022-09-24T01:17:00;97482.34;;;8.19;100.00
69198;BME280;56311;50.298;8.514;2022-09-24T01:19:58;97486.16;;;8.13;100.00
69198;BME280;56311;50.298;8.514;2022-09-24T01:22:38;97482.38;;;8.14;100.00
69198;BME280;56311;50.298;8.514;2022-09-24T01:25:17;97484.81;;;8.10;100.00
69198;BME280;56311;50.298;8.514;2022-09-24T01:27:58;97480.84;;;8.03;100.00
69198;BME280;56311;50.298;8.514;2022-09-24T01:30:29;97475.19;;;7.94;100.00
69198;BME280;56311;50.298;8.514;2022-09-24T01:33:00;97471.16;;;7.96;100.00
69198;BME280;56311;50.298;8.514;2022-09-24T01:35:33;97468.22;;;7.93;100.00
69198;BME280;56311;50.298;8.514;2022-09-24T01:38:03;62402.38;;;-147.88;100.00
69198;BME280;56311;50.298;8.514;2022-09-24T01:40:32;97452.28;;;7.96;100.00
69198;BME280;56311;50.298;8.514;2022-09-24T01:43:01;97453.13;;;7.97;100.00
69198;BME280;56311;50.298;8.514;2022-09-24T01:45:32;97445.31;;;7.95;100.00
69198;BME280;56311;50.298;8.514;2022-09-24T01:48:01;97454.44;;;8.00;100.00
69198;BME280;56311;50.298;8.514;2022-09-24T01:50:32;97453.13;;;7.97;100.00
69198;BME280;56311;50.298;8.514;2022-09-24T01:53:04;97454.19;;;7.96;100.00
69198;BME280;56311;50.298;8.514;2022-09-24T01:55:35;97444.78;;;7.93;100.00
69198;BME280;56311;50.298;8.514;2022-09-24T01:58:07;97440.47;;;7.92;100.00
69198;BME280;56311;50.298;8.514;2022-09-24T02:00:38;97447.50;;;7.88;100.00
69198;BME280;56311;50.298;8.514;2022-09-24T02:03:09;97440.53;;;7.82;100.00
69198;BME280;56311;50.298;8.514;2022-09-24T02:05:43;97438.38;;;7.79;100.00
69198;BME280;56311;50.298;8.514;2022-09-24T02:08:15;97432.47;;;7.77;100.00
69198;BME280;56311;50.298;8.514;2022-09-24T02:10:46;97424.72;;;7.70;100.00
69198;BME280;56311;50.298;8.514;2022-09-24T02:13:18;97430.09;;;7.65;100.00
69198;BME280;56311;50.298;8.514;2022-09-24T02:15:49;97426.63;;;7.64;100.00
69198;BME280;56311;50.298;8.514;2022-09-24T02:18:20;97427.69;;;7.63;100.00
69198;BME280;56311;50.298;8.514;2022-09-24T02:20:50;97426.91;;;7.58;100.00
69198;BME280;56311;50.298;8.514;2022-09-24T02:23:19;97427.19;;;7.56;100.00
69198;BME280;56311;50.298;8.514;2022-09-24T02:25:50;97432.88;;;7.49;100.00
69198;BME280;56311;50.298;8.514;2022-09-24T02:28:18;97428.06;;;7.41;100.00
69198;BME280;56311;50.298;8.514;2022-09-24T02:30:50;97429.66;;;7.37;100.00
69198;BME280;56311;50.298;8.514;2022-09-24T02:33:20;97429.97;;;7.30;100.00
69198;BME280;56311;50.298;8.514;2022-09-24T02:36:06;97427.84;;;7.22;100.00
69198;BME280;56311;50.298;8.514;2022-09-24T02:38:34;97419.81;;;7.17;100.00
69198;BME280;56311;50.298;8.514;2022-09-24T02:41:01;97420.34;;;7.14;100.00
69198;BME280;56311;50.298;8.514;2022-09-24T02:43:27;97426.25;;;7.16;100.00
69198;BME280;56311;50.298;8.514;2022-09-24T02:45:55;97426.50;;;7.14;100.00
69198;BME280;56311;50.298;8.514;2022-09-24T02:48:22;97411.22;;;7.10;100.00
69198;BME280;56311;50.298;8.514;2022-09-24T02:50:48;97416.06;;;7.08;100.00
69198;BME280;56311;50.298;8.514;2022-09-24T02:53:15;97412.03;;;7.05;100.00
69198;BME280;56311;50.298;8.514;2022-09-24T02:55:42;97413.63;;;7.01;100.00
69198;BME280;56311;50.298;8.514;2022-09-24T02:58:08;97422.53;;;6.96;100.00
69198;BME280;56311;50.298;8.514;2022-09-24T03:00:35;97415.00;;;6.93;100.00
69198;BME280;56311;50.298;8.514;2022-09-24T03:03:03;97415.81;;;6.94;100.00
69198;BME280;56311;50.298;8.514;2022-09-24T03:05:30;97417.72;;;6.88;100.00
69198;BME280;56311;50.298;8.514;2022-09-24T03:07:57;97420.38;;;6.83;100.00
69198;BME280;56311;50.298;8.514;2022-09-24T03:10:24;97418.81;;;6.72;100.00
69198;BME280;56311;50.298;8.514;2022-09-24T03:12:51;97424.19;;;6.72;100.00
69198;BME280;56311;50.298;8.514;2022-09-24T03:15:18;97416.09;;;6.61;100.00
69198;BME280;56311;50.298;8.514;2022-09-24T03:17:44;97420.97;;;6.59;100.00
69198;BME280;56311;50.298;8.514;2022-09-24T03:20:12;97422.06;;;6.53;100.00
69198;BME280;56311;50.298;8.514;2022-09-24T03:22:40;97422.06;;;6.53;100.00
69198;BME280;56311;50.298;8.514;2022-09-24T03:25:07;97420.41;;;6.47;100.00
69198;BME280;56311;50.298;8.514;2022-09-24T03:27:34;97427.97;;;6.45;100.00
69198;BME280;56311;50.298;8.514;2022-09-24T03:30:01;97425.78;;;6.42;100.00
69198;BME280;56311;50.298;8.514;2022-09-24T03:32:46;97423.13;;;6.36;100.00
69198;BME280;56311;50.298;8.514;2022-09-24T03:35:14;97420.72;;;6.35;100.00
69198;BME280;56311;50.298;8.514;2022-09-24T03:37:41;97425.53;;;6.38;100.00
69198;BME280;56311;50.298;8.514;2022-09-24T03:40:14;97417.47;;;6.33;100.00
69198;BME280;56311;50.298;8.514;2022-09-24T03:42:41;62402.38;;;-147.88;100.00
69198;BME280;56311;50.298;8.514;2022-09-24T03:45:08;97413.97;;;6.27;100.00
69198;BME280;56311;50.298;8.514;2022-09-24T03:47:35;97417.47;;;6.28;100.00
69198;BME280;56311;50.298;8.514;2022-09-24T03:50:03;97412.34;;;6.21;100.00
69198;BME280;56311;50.298;8.514;2022-09-24T03:52:31;97406.19;;;6.20;100.00
69198;BME280;56311;50.298;8.514;2022-09-24T03:54:58;97397.84;;;6.12;100.00
69198;BME280;56311;50.298;8.514;2022-09-24T03:57:25;97399.47;;;6.08;100.00
69198;BME280;56311;50.298;8.514;2022-09-24T03:59:51;97405.91;;;6.12;100.00
69198;BME280;56311;50.298;8.514;2022-09-24T04:02:19;97402.13;;;6.13;100.00
69198;BME280;56311;50.298;8.514;2022-09-24T04:04:46;97402.41;;;6.11;100.00
69198;BME280;56311;50.298;8.514;2022-09-24T04:07:13;97404.56;;;6.09;100.00
69198;BME280;56311;50.298;8.514;2022-09-24T04:09:41;97405.91;;;6.12;100.00
69198;BME280;56311;50.298;8.514;2022-09-24T04:12:07;97395.44;;;6.15;100.00
69198;BME280;56311;50.298;8.514;2022-09-24T04:14:34;97392.50;;;6.17;100.00
69198;BME280;56311;50.298;8.514;2022-09-24T04:17:01;97384.44;;;6.22;100.00
69198;BME280;56311;50.298;8.514;2022-09-24T04:19:28;97389.00;;;6.27;100.00
69198;BME280;56311;50.298;8.514;2022-09-24T04:21:57;97382.00;;;6.31;100.00
69198;BME280;56311;50.298;8.514;2022-09-24T04:24:24;97377.44;;;6.31;100.00
69198;BME280;56311;50.298;8.514;2022-09-24T04:26:52;97371.53;;;6.34;100.00
69198;BME280;56311;50.298;8.514;2022-09-24T04:29:19;97378.50;;;6.35;100.00
69198;BME280;56311;50.298;8.514;2022-09-24T04:31:45;97371.25;;;6.36;100.00
69198;BME280;56311;50.298;8.514;2022-09-24T04:34:12;97369.13;;;6.33;100.00
69198;BME280;56311;50.298;8.514;2022-09-24T04:36:39;97381.72;;;6.32;100.00
69198;BME280;56311;50.298;8.514;2022-09-24T04:39:06;97383.91;;;6.30;100.00
69198;BME280;56311;50.298;8.514;2022-09-24T04:41:33;97378.50;;;6.25;100.00
69198;BME280;56311;50.298;8.514;2022-09-24T04:44:02;97384.97;;;6.29;100.00
69198;BME280;56311;50.298;8.514;2022-09-24T04:46:30;97375.81;;;6.25;100.00
69198;BME280;56311;50.298;8.514;2022-09-24T04:48:59;97375.81;;;6.20;100.00
69198;BME280;56311;50.298;8.514;2022-09-24T04:51:27;97366.16;;;6.19;100.00
69198;BME280;56311;50.298;8.514;2022-09-24T04:53:53;97373.94;;;6.15;100.00
69198;BME280;56311;50.298;8.514;2022-09-24T04:56:20;97369.38;;;6.16;100.00
69198;BME280;56311;50.298;8.514;2022-09-24T04:58:49;97379.59;;;6.14;100.00
69198;BME280;56311;50.298;8.514;2022-09-24T05:01:17;97374.22;;;6.09;100.00
69198;BME280;56311;50.298;8.514;2022-09-24T05:03:44;97384.97;;;6.14;100.00
69198;BME280;56311;50.298;8.514;2022-09-24T05:06:11;97382.00;;;6.10;100.00
69198;BME280;56311;50.298;8.514;2022-09-24T05:08:38;97378.53;;;6.10;100.00
69198;BME280;56311;50.298;8.514;2022-09-24T05:11:05;97375.84;;;6.10;100.00
69198;BME280;56311;50.298;8.514;2022-09-24T05:13:32;97373.41;;;6.08;100.00
69198;BME280;56311;50.298;8.514;2022-09-24T05:15:59;97366.72;;;6.11;100.00
69198;BME280;56311;50.298;8.514;2022-09-24T05:18:28;97366.72;;;6.11;100.00
69198;BME280;56311;50.298;8.514;2022-09-24T05:20:54;97368.31;;;6.17;100.00
69198;BME280;56311;50.298;8.514;2022-09-24T05:23:21;97362.94;;;6.22;100.00
69198;BME280;56311;50.298;8.514;2022-09-24T05:25:48;97377.44;;;6.31;100.00
69198;BME280;56311;50.298;8.514;2022-09-24T05:28:33;97383.63;;;6.42;100.00
69198;BME280;56311;50.298;8.514;2022-09-24T05:31:00;97384.16;;;6.55;100.00
69198;BME280;56311;50.298;8.514;2022-09-24T05:33:29;97386.00;;;6.64;100.00
69198;BME280;56311;50.298;8.514;2022-09-24T05:35:56;97391.38;;;6.69;100.00
69198;BME280;56311;50.298;8.514;2022-09-24T05:38:25;97396.50;;;6.71;100.00
69198;BME280;56311;50.298;8.514;2022-09-24T05:40:52;97396.75;;;6.69;100.00
69198;BME280;56311;50.298;8.514;2022-09-24T05:43:20;97395.16;;;6.74;100.00
69198;BME280;56311;50.298;8.514;2022-09-24T05:45:47;97392.16;;;6.80;100.00
69198;BME280;56311;50.298;8.514;2022-09-24T05:48:17;97392.97;;;6.86;100.00
69198;BME280;56311;50.298;8.514;2022-09-24T05:50:46;97389.47;;;6.91;100.00
69198;BME280;56311;50.298;8.514;2022-09-24T05:53:12;97390.53;;;6.90;100.00
69198;BME280;56311;50.298;8.514;2022-09-24T05:55:41;97404.53;;;6.92;100.00
69198;BME280;56311;50.298;8.514;2022-09-24T05:58:09;97403.72;;;6.96;100.00
69198;BME280;56311;50.298;8.514;2022-09-24T06:00:36;97407.19;;;7.02;100.00
69198;BME280;56311;50.298;8.514;2022-09-24T06:03:04;97400.97;;;7.17;100.00
69198;BME280;56311;50.298;8.514;2022-09-24T06:05:33;97405.22;;;7.28;100.00
69198;BME280;56311;50.298;8.514;2022-09-24T06:08:03;97412.47;;;7.33;100.00
69198;BME280;56311;50.298;8.514;2022-09-24T06:10:30;97411.09;;;7.46;100.00
69198;BME280;56311;50.298;8.514;2022-09-24T06:12:57;97414.53;;;7.57;100.00
69198;BME280;56311;50.298;8.514;2022-09-24T06:15:23;97416.13;;;7.63;100.00
69198;BME280;56311;50.298;8.514;2022-09-24T06:17:52;97415.81;;;7.70;100.00
69198;BME280;56311;50.298;8.514;2022-09-24T06:20:20;97413.16;;;7.64;100.00
69198;BME280;56311;50.298;8.514;2022-09-24T06:22:47;97403.66;;;7.72;100.00
69198;BME280;56311;50.298;8.514;2022-09-24T06:25:15;97402.31;;;7.80;100.00
69198;BME280;56311;50.298;8.514;2022-09-24T06:27:42;97408.16;;;7.92;100.00
69198;BME280;56311;50.298;8.514;2022-09-24T06:30:09;97411.66;;;7.93;100.00
69198;BME280;56311;50.298;8.514;2022-09-24T06:32:37;97414.00;;;8.05;100.00
69198;BME280;56311;50.298;8.514;2022-09-24T06:35:05;97419.03;;;8.17;100.00
69198;BME280;56311;50.298;8.514;2022-09-24T06:37:32;97417.06;;;8.27;100.00
69198;BME280;56311;50.298;8.514;2022-09-24T06:40:00;97413.78;;;8.36;100.00
69198;BME280;56311;50.298;8.514;2022-09-24T06:42:28;97416.16;;;8.48;100.00
69198;BME280;56311;50.298;8.514;2022-09-24T06:44:56;97415.88;;;8.49;100.00
69198;BME280;56311;50.298;8.514;2022-09-24T06:47:23;97419.22;;;8.65;100.00
69198;BME280;56311;50.298;8.514;2022-09-24T06:49:49;97424.50;;;8.81;100.00
69198;BME280;56311;50.298;8.514;2022-09-24T06:52:16;97423.31;;;8.92;100.00
69198;BME280;56311;50.298;8.514;2022-09-24T06:54:43;97419.13;;;9.05;100.00
69198;BME280;56311;50.298;8.514;2022-09-24T06:57:09;97421.25;;;9.08;100.00
69198;BME280;56311;50.298;8.514;2022-09-24T06:59:38;97416.28;;;9.20;100.00
69198;BME280;56311;50.298;8.514;2022-09-24T07:02:04;97413.22;;;9.27;100.00
69198;BME280;56311;50.298;8.514;2022-09-24T07:04:31;97405.75;;;9.43;100.00
69198;BME280;56311;50.298;8.514;2022-09-24T07:06:58;97410.16;;;9.58;100.00
69198;BME280;56311;50.298;8.514;2022-09-24T07:09:43;97408.19;;;9.64;99.27
69198;BME280;56311;50.298;8.514;2022-09-24T07:12:10;97410.19;;;9.77;98.71
69198;BME280;56311;50.298;8.514;2022-09-24T07:14:39;97419.59;;;9.80;97.07
69198;BME280;56311;50.298;8.514;2022-09-24T07:17:05;97405.81;;;9.81;96.96
69198;BME280;56311;50.298;8.514;2022-09-24T07:19:32;97415.88;;;9.76;95.00
69198;BME280;56311;50.298;8.514;2022-09-24T07:21:59;97411.06;;;9.92;95.19
69198;BME280;56311;50.298;8.514;2022-09-24T07:24:26;97422.63;;;10.16;95.35
69198;BME280;56311;50.298;8.514;2022-09-24T07:26:53;97419.66;;;10.51;94.76
69198;BME280;56311;50.298;8.514;2022-09-24T07:29:19;97425.50;;;10.91;93.46
69198;BME280;56311;50.298;8.514;2022-09-24T07:31:47;97422.63;;;11.15;89.44
69198;BME280;56311;50.298;8.514;2022-09-24T07:34:14;97418.53;;;11.18;89.84
69198;BME280;56311;50.298;8.514;2022-09-24T07:36:41;97417.34;;;11.38;88.95
69198;BME280;56311;50.298;8.514;2022-09-24T07:39:08;97426.16;;;11.58;87.43
69198;BME280;56311;50.298;8.514;2022-09-24T07:41:35;97427.75;;;11.59;85.63
69198;BME280;56311;50.298;8.514;2022-09-24T07:44:08;97431.56;;;11.58;86.07
69198;BME280;56311;50.298;8.514;2022-09-24T07:46:36;97425.44;;;11.52;85.69
69198;BME280;56311;50.298;8.514;2022-09-24T07:49:04;97422.34;;;11.59;84.83
69198;BME280;56311;50.298;8.514;2022-09-24T07:51:31;97430.66;;;11.62;84.60
69198;BME280;56311;50.298;8.514;2022-09-24T07:53:58;97427.06;;;11.67;83.81
69198;BME280;56311;50.298;8.514;2022-09-24T07:56:24;97422.31;;;11.73;84.32
69198;BME280;56311;50.298;8.514;2022-09-24T07:58:52;97428.03;;;11.71;83.49
69198;BME280;56311;50.298;8.514;2022-09-24T08:01:19;97432.53;;;11.90;82.38
69198;BME280;56311;50.298;8.514;2022-09-24T08:03:46;97430.75;;;11.85;80.67
69198;BME280;56311;50.298;8.514;2022-09-24T08:06:14;62402.38;;;-147.88;100.00
69198;BME280;56311;50.298;8.514;2022-09-24T08:08:41;62402.38;;;-147.88;100.00
69198;BME280;56311;50.298;8.514;2022-09-24T08:11:11;97430.94;;;11.89;81.14
69198;BME280;56311;50.298;8.514;2022-09-24T08:13:42;97438.63;;;11.95;82.74
69198;BME280;56311;50.298;8.514;2022-09-24T08:16:11;97451.72;;;12.07;82.12
69198;BME280;56311;50.298;8.514;2022-09-24T08:18:38;97455.06;;;12.27;80.89
69198;BME280;56311;50.298;8.514;2022-09-24T08:21:06;97455.28;;;12.53;79.98
69198;BME280;56311;50.298;8.514;2022-09-24T08:23:36;97446.72;;;12.60;79.31
69198;BME280;56311;50.298;8.514;2022-09-24T08:26:04;97433.44;;;12.81;78.96
69198;BME280;56311;50.298;8.514;2022-09-24T08:28:31;97440.69;;;12.95;81.02
69198;BME280;56311;50.298;8.514;2022-09-24T08:30:59;97433.38;;;12.95;79.06
69198;BME280;56311;50.298;8.514;2022-09-24T08:33:26;97421.78;;;12.81;78.75
69198;BME280;56311;50.298;8.514;2022-09-24T08:35:53;97438.06;;;13.03;79.51
69198;BME280;56311;50.298;8.514;2022-09-24T08:38:20;97444.81;;;13.15;77.91
69198;BME280;56311;50.298;8.514;2022-09-24T08:40:55;97446.63;;;13.28;78.21
69198;BME280;56311;50.298;8.514;2022-09-24T08:43:35;97435.88;;;13.46;76.87
69198;BME280;56311;50.298;8.514;2022-09-24T08:46:11;97432.06;;;13.64;75.16
69198;BME280;56311;50.298;8.514;2022-09-24T08:48:58;97432.91;;;13.74;74.21
69198;BME280;56311;50.298;8.514;2022-09-24T08:51:34;97434.78;;;13.64;74.24
69198;BME280;56311;50.298;8.514;2022-09-24T08:54:05;97433.25;;;13.81;69.66
69198;BME280;56311;50.298;8.514;2022-09-24T08:56:37;97448.94;;;13.93;65.92
69198;BME280;56311;50.298;8.514;2022-09-24T08:59:20;97445.91;;;14.12;64.82
69198;BME280;56311;50.298;8.514;2022-09-24T09:01:57;97446.41;;;14.05;65.50
69198;BME280;56311;50.298;8.514;2022-09-24T09:04:33;97445.41;;;13.92;64.42
69198;BME280;56311;50.298;8.514;2022-09-24T09:07:13;97447.06;;;14.37;64.58
69198;BME280;56311;50.298;8.514;2022-09-24T09:09:47;97438.44;;;14.70;64.01
69198;BME280;56311;50.298;8.514;2022-09-24T09:12:21;97433.00;;;14.70;63.97
69198;BME280;56311;50.298;8.514;2022-09-24T09:14:55;97430.88;;;14.85;66.12
69198;BME280;56311;50.298;8.514;2022-09-24T09:17:35;97426.47;;;15.19;66.16
69198;BME280;56311;50.298;8.514;2022-09-24T09:20:13;97428.72;;;15.08;67.63
69198;BME280;56311;50.298;8.514;2022-09-24T09:22:44;97426.72;;;14.70;68.41
69198;BME280;56311;50.298;8.514;2022-09-24T09:25:17;97436.31;;;14.85;69.74
69198;BME280;56311;50.298;8.514;2022-09-24T09:27:49;62402.38;;;-147.88;100.00
69198;BME280;56311;50.298;8.514;2022-09-24T09:30:18;97441.59;;;14.90;71.26
69198;BME280;56311;50.298;8.514;2022-09-24T09:32:57;62402.38;;;-147.88;100.00
69198;BME280;56311;50.298;8.514;2022-09-24T09:35:35;62402.38;;;-147.88;100.00
69198;BME280;56311;50.298;8.514;2022-09-24T09:38:12;62402.38;;;-147.88;100.00
69198;BME280;56311;50.298;8.514;2022-09-24T09:40:49;62402.38;;;-147.88;100.00
69198;BME280;56311;50.298;8.514;2022-09-24T09:43:19;62402.38;;;-147.88;100.00
69198;BME280;56311;50.298;8.514;2022-09-24T09:45:55;62402.38;;;-147.88;100.00
69198;BME280;56311;50.298;8.514;2022-09-24T09:48:27;62402.38;;;-147.88;100.00
69198;BME280;56311;50.298;8.514;2022-09-24T09:51:00;62402.38;;;-147.88;100.00
69198;BME280;56311;50.298;8.514;2022-09-24T09:53:32;62402.38;;;-147.88;100.00
69198;BME280;56311;50.298;8.514;2022-09-24T09:56:00;62402.38;;;-147.88;100.00
69198;BME280;56311;50.298;8.514;2022-09-24T09:58:30;62402.38;;;-147.88;100.00
69198;BME280;56311;50.298;8.514;2022-09-24T10:01:06;62402.38;;;-147.88;100.00
69198;BME280;56311;50.298;8.514;2022-09-24T10:03:46;62402.38;;;-147.88;100.00
69198;BME280;56311;50.298;8.514;2022-09-24T10:06:22;62402.38;;;-147.88;100.00
69198;BME280;56311;50.298;8.514;2022-09-24T10:08:49;62402.38;;;-147.88;100.00
69198;BME280;56311;50.298;8.514;2022-09-24T10:11:17;62402.38;;;-147.88;100.00
69198;BME280;56311;50.298;8.514;2022-09-24T10:13:46;62402.38;;;-147.88;100.00
69198;BME280;56311;50.298;8.514;2022-09-24T10:16:28;62402.38;;;-147.88;100.00
69198;BME280;56311;50.298;8.514;2022-09-24T10:18:56;62402.38;;;-147.88;100.00
69198;BME280;56311;50.298;8.514;2022-09-24T10:21:28;62402.38;;;-147.88;100.00
69198;BME280;56311;50.298;8.514;2022-09-24T10:23:59;62402.38;;;-147.88;100.00
69198;BME280;56311;50.298;8.514;2022-09-24T10:26:34;62402.38;;;-147.88;100.00
69198;BME280;56311;50.298;8.514;2022-09-24T10:29:12;62402.38;;;-147.88;100.00
69198;BME280;56311;50.298;8.514;2022-09-24T10:31:59;62402.38;;;-147.88;100.00
69198;BME280;56311;50.298;8.514;2022-09-24T10:34:30;62402.38;;;-147.88;100.00
69198;BME280;56311;50.298;8.514;2022-09-24T10:36:59;62402.38;;;-147.88;100.00
69198;BME280;56311;50.298;8.514;2022-09-24T10:39:27;62402.38;;;-147.88;100.00
69198;BME280;56311;50.298;8.514;2022-09-24T10:41:55;62402.38;;;-147.88;100.00
69198;BME280;56311;50.298;8.514;2022-09-24T10:44:28;62402.38;;;-147.88;100.00
69198;BME280;56311;50.298;8.514;2022-09-24T10:47:08;62402.38;;;-147.88;100.00
69198;BME280;56311;50.298;8.514;2022-09-24T10:50:02;62402.38;;;-147.88;100.00
69198;BME280;56311;50.298;8.514;2022-09-24T10:52:45;62402.38;;;-147.88;100.00
69198;BME280;56311;50.298;8.514;2022-09-24T10:55:38;62402.38;;;-147.88;100.00
69198;BME280;56311;50.298;8.514;2022-09-24T10:58:17;62402.38;;;-147.88;100.00
69198;BME280;56311;50.298;8.514;2022-09-24T11:00:57;62402.38;;;-147.88;100.00
69198;BME280;56311;50.298;8.514;2022-09-24T11:06:35;62402.38;;;-147.88;100.00
69198;BME280;56311;50.298;8.514;2022-09-24T11:09:11;62402.38;;;-147.88;100.00
69198;BME280;56311;50.298;8.514;2022-09-24T11:11:49;62402.38;;;-147.88;100.00
69198;BME280;56311;50.298;8.514;2022-09-24T11:14:39;62402.38;;;-147.88;100.00
69198;BME280;56311;50.298;8.514;2022-09-24T11:17:29;62402.38;;;-147.88;100.00
69198;BME280;56311;50.298;8.514;2022-09-24T11:20:11;62402.38;;;-147.88;100.00
69198;BME280;56311;50.298;8.514;2022-09-24T11:25:37;62402.38;;;-147.88;100.00
69198;BME280;56311;50.298;8.514;2022-09-24T11:28:12;62402.38;;;-147.88;100.00
69198;BME280;56311;50.298;8.514;2022-09-24T11:30:51;62402.38;;;-147.88;100.00
69198;BME280;56311;50.298;8.514;2022-09-24T11:33:34;62402.38;;;-147.88;100.00
69198;BME280;56311;50.298;8.514;2022-09-24T11:36:15;62402.38;;;-147.88;100.00
69198;BME280;56311;50.298;8.514;2022-09-24T11:39:03;62402.38;;;-147.88;100.00
69198;BME280;56311;50.298;8.514;2022-09-24T11:41:42;62402.38;;;-147.88;100.00
69198;BME280;56311;50.298;8.514;2022-09-24T11:44:42;62402.38;;;-147.88;100.00
69198;BME280;56311;50.298;8.514;2022-09-24T11:47:24;62402.38;;;-147.88;100.00
69198;BME280;56311;50.298;8.514;2022-09-24T11:52:50;62402.38;;;-147.88;100.00
69198;BME280;56311;50.298;8.514;2022-09-24T11:55:22;62402.38;;;-147.88;100.00
69198;BME280;56311;50.298;8.514;2022-09-24T11:57:58;62402.38;;;-147.88;100.00
69198;BME280;56311;50.298;8.514;2022-09-24T12:00:33;62402.38;;;-147.88;100.00
69198;BME280;56311;50.298;8.514;2022-09-24T12:03:11;62402.38;;;-147.88;100.00
69198;BME280;56311;50.298;8.514;2022-09-24T12:05:45;62402.38;;;-147.88;100.00
69198;BME280;56311;50.298;8.514;2022-09-24T12:08:17;62402.38;;;-147.88;100.00
69198;BME280;56311;50.298;8.514;2022-09-24T12:10:48;62402.38;;;-147.88;100.00
69198;BME280;56311;50.298;8.514;2022-09-24T12:13:21;62402.38;;;-147.88;100.00
69198;BME280;56311;50.298;8.514;2022-09-24T12:15:53;62402.38;;;-147.88;100.00
69198;BME280;56311;50.298;8.514;2022-09-24T12:18:24;62402.38;;;-147.88;100.00
69198;BME280;56311;50.298;8.514;2022-09-24T12:20:56;62402.38;;;-147.88;100.00
69198;BME280;56311;50.298;8.514;2022-09-24T12:23:29;62402.38;;;-147.88;100.00
69198;BME280;56311;50.298;8.514;2022-09-24T12:25:58;62402.38;;;-147.88;100.00
69198;BME280;56311;50.298;8.514;2022-09-24T12:28:34;62402.38;;;-147.88;100.00
69198;BME280;56311;50.298;8.514;2022-09-24T12:31:24;62402.38;;;-147.88;100.00
69198;BME280;56311;50.298;8.514;2022-09-24T12:34:18;62402.38;;;-147.88;100.00
69198;BME280;56311;50.298;8.514;2022-09-24T12:36:56;62402.38;;;-147.88;100.00
69198;BME280;56311;50.298;8.514;2022-09-24T12:39:27;62402.38;;;-147.88;100.00
69198;BME280;56311;50.298;8.514;2022-09-24T12:41:59;62402.38;;;-147.88;100.00
69198;BME280;56311;50.298;8.514;2022-09-24T12:44:31;62402.38;;;-147.88;100.00
69198;BME280;56311;50.298;8.514;2022-09-24T12:47:01;62402.38;;;-147.88;100.00
69198;BME280;56311;50.298;8.514;2022-09-24T12:49:31;62402.38;;;-147.88;100.00
69198;BME280;56311;50.298;8.514;2022-09-24T12:52:02;62402.38;;;-147.88;100.00
69198;BME280;56311;50.298;8.514;2022-09-24T12:54:31;62402.38;;;-147.88;100.00
69198;BME280;56311;50.298;8.514;2022-09-24T12:57:12;62402.38;;;-147.88;100.00
69198;BME280;56311;50.298;8.514;2022-09-24T12:59:47;62402.38;;;-147.88;100.00
69198;BME280;56311;50.298;8.514;2022-09-24T13:02:17;62402.38;;;-147.88;100.00
69198;BME280;56311;50.298;8.514;2022-09-24T13:04:50;62402.38;;;-147.88;100.00
69198;BME280;56311;50.298;8.514;2022-09-24T13:07:30;62402.38;;;-147.88;100.00
69198;BME280;56311;50.298;8.514;2022-09-24T13:10:10;62402.38;;;-147.88;100.00
69198;BME280;56311;50.298;8.514;2022-09-24T13:12:38;62402.38;;;-147.88;100.00
69198;BME280;56311;50.298;8.514;2022-09-24T13:15:07;62402.38;;;-147.88;100.00
69198;BME280;56311;50.298;8.514;2022-09-24T13:17:43;62402.38;;;-147.88;100.00
69198;BME280;56311;50.298;8.514;2022-09-24T13:20:21;62402.38;;;-147.88;100.00
69198;BME280;56311;50.298;8.514;2022-09-24T13:22:57;62402.38;;;-147.88;100.00